This is the latest recevied weather packets stored in our database for station/object F5PQL-4. If no packets are shown the sender has not sent any weather packets the latest 10 day(s).
| Time | Temp. | Humidity | Pressure | Rain* | Wind** | Luminosity | Snow |
|---|---|---|---|---|---|---|---|
| 1778144792 | 28.89° C | 28% | 1015.7 hPa | - | - | - | - |
| 1778143891 | 33.89° C | 24% | 1015.5 hPa | - | - | - | - |
| 1778142991 | 32.22° C | 26% | 1015.5 hPa | - | - | - | - |
| 1778142091 | 28.33° C | 32% | 1015.7 hPa | - | - | - | - |
| 1778141191 | 31.11° C | 29% | 1015.7 hPa | - | - | - | - |
| 1778140291 | 30.56° C | 31% | 1015.7 hPa | - | - | - | - |
| 1778139391 | 27.78° C | 36% | 1015.6 hPa | - | - | - | - |
| 1778138491 | 24.44° C | 39% | 1015.8 hPa | - | - | - | - |
| 1778137591 | 22.22° C | 44% | 1015.7 hPa | - | - | - | - |
| 1778136691 | 25° C | 41% | 1015.6 hPa | - | - | - | - |
| 1778135791 | 27.22° C | 40% | 1015.4 hPa | - | - | - | - |
| 1778134890 | 26.11° C | 43% | 1015.4 hPa | - | - | - | - |
| 1778133996 | 23.33° C | 48% | 1015.5 hPa | - | - | - | - |
| 1778133096 | 21.67° C | 53% | 1015.3 hPa | - | - | - | - |
| 1778132196 | 19.44° C | 56% | 1015.2 hPa | - | - | - | - |
| 1778131296 | 18.33° C | 60% | 1015.1 hPa | - | - | - | - |
| 1778130396 | 16.11° C | 65% | 1015.1 hPa | - | - | - | - |
| 1778129495 | 13.33° C | 70% | 1015.1 hPa | - | - | - | - |
| 1778128595 | 13.33° C | 70% | 1014.9 hPa | - | - | - | - |
| 1778127695 | 13.33° C | 69% | 1015 hPa | - | - | - | - |
| 1778126796 | 13.33° C | 69% | 1014.8 hPa | - | - | - | - |
| 1778125895 | 13.33° C | 69% | 1014.6 hPa | - | - | - | - |
| 1778124995 | 13.33° C | 69% | 1014.7 hPa | - | - | - | - |
| 1778124095 | 13.33° C | 69% | 1014.6 hPa | - | - | - | - |
| 1778123195 | 13.33° C | 69% | 1014.6 hPa | - | - | - | - |
* Rain since midnight (hover to see other rain measurements)
** Current wind speed in m/s (hover to see current wind gust speed)